createdAt,value
2022-09-21T00:01:33.139Z,7.70
2022-09-21T00:04:04.229Z,7.70
2022-09-21T00:06:35.073Z,7.70
2022-09-21T00:09:05.100Z,7.80
2022-09-21T00:11:34.992Z,7.80
2022-09-21T00:14:07.253Z,7.70
2022-09-21T00:16:35.853Z,7.70
2022-09-21T00:19:06.738Z,7.80
2022-09-21T00:21:35.923Z,7.80
2022-09-21T00:24:04.393Z,7.80
2022-09-21T00:26:32.964Z,7.80
2022-09-21T00:29:02.687Z,7.80
2022-09-21T00:31:32.035Z,7.80
2022-09-21T00:34:00.932Z,7.80
2022-09-21T00:36:30.473Z,7.90
2022-09-21T00:39:01.900Z,7.90
2022-09-21T00:41:31.668Z,8.00
2022-09-21T00:44:24.423Z,8.00
2022-09-21T00:46:54.944Z,8.00
2022-09-21T00:49:23.474Z,8.00
2022-09-21T00:51:53.575Z,8.00
2022-09-21T00:54:27.162Z,8.00
2022-09-21T00:56:56.367Z,8.10
2022-09-21T00:59:29.431Z,8.00
2022-09-21T01:01:59.452Z,8.10
2022-09-21T01:04:28.618Z,8.00
2022-09-21T01:06:59.909Z,8.10
2022-09-21T01:09:29.093Z,8.00
2022-09-21T01:12:12.112Z,8.10
2022-09-21T01:14:55.441Z,8.00
2022-09-21T01:17:31.884Z,8.00
2022-09-21T01:20:21.351Z,8.00
2022-09-21T01:23:03.020Z,8.00
2022-09-21T01:25:38.343Z,8.10
2022-09-21T01:28:19.172Z,8.10
2022-09-21T01:30:53.492Z,8.10
2022-09-21T01:33:27.301Z,8.10
2022-09-21T01:35:58.987Z,8.10
2022-09-21T01:38:30.235Z,8.00
2022-09-21T01:41:12.097Z,8.10
2022-09-21T01:43:44.663Z,8.00
2022-09-21T01:46:18.077Z,8.00
2022-09-21T01:48:48.368Z,8.00
2022-09-21T01:51:19.470Z,8.00
2022-09-21T01:53:50.308Z,8.00
2022-09-21T01:56:23.015Z,8.00
2022-09-21T01:58:58.464Z,7.90
2022-09-21T02:01:30.547Z,8.00
2022-09-21T02:04:01.880Z,7.90
2022-09-21T02:06:31.197Z,7.90
2022-09-21T02:08:59.475Z,7.90
2022-09-21T02:11:27.485Z,7.90
2022-09-21T02:13:56.595Z,7.90
2022-09-21T02:16:40.106Z,7.80
2022-09-21T02:19:14.148Z,7.80
2022-09-21T02:21:57.370Z,7.80
2022-09-21T02:24:34.989Z,7.80
2022-09-21T02:27:06.684Z,7.80
2022-09-21T02:29:46.370Z,7.80
2022-09-21T02:32:24.739Z,7.80
2022-09-21T02:34:58.992Z,7.80
2022-09-21T02:37:36.710Z,7.80
2022-09-21T02:40:11.356Z,7.80
2022-09-21T02:42:42.287Z,7.80
2022-09-21T02:45:15.843Z,7.80
2022-09-21T02:47:49.334Z,7.80
2022-09-21T02:50:23.239Z,7.80
2022-09-21T02:52:54.078Z,7.80
2022-09-21T02:55:23.765Z,7.90
2022-09-21T02:57:51.804Z,7.90
2022-09-21T03:00:20.533Z,7.90
2022-09-21T03:02:52.485Z,8.00
2022-09-21T03:05:20.785Z,8.00
2022-09-21T03:07:49.048Z,8.00
2022-09-21T03:10:19.134Z,8.00
2022-09-21T03:12:46.973Z,8.00
2022-09-21T03:15:16.540Z,8.00
2022-09-21T03:17:44.493Z,8.00
2022-09-21T03:20:13.883Z,8.00
2022-09-21T03:22:41.941Z,8.10
2022-09-21T03:25:12.335Z,8.10
2022-09-21T03:27:41.261Z,8.00
2022-09-21T03:30:10.237Z,8.10
2022-09-21T03:32:38.135Z,8.10
2022-09-21T03:35:07.036Z,8.10
2022-09-21T03:37:40.657Z,8.10
2022-09-21T03:40:11.539Z,8.10
2022-09-21T03:42:40.084Z,8.10
2022-09-21T03:45:09.217Z,8.10
2022-09-21T03:47:37.096Z,8.10
2022-09-21T03:50:10.251Z,8.10
2022-09-21T03:52:39.840Z,8.10
2022-09-21T03:55:10.071Z,8.00
2022-09-21T03:57:38.478Z,8.00
2022-09-21T04:00:09.245Z,8.00
2022-09-21T04:02:37.874Z,7.90
2022-09-21T04:05:06.955Z,7.90
2022-09-21T04:07:35.863Z,7.80
2022-09-21T04:10:06.983Z,7.80
2022-09-21T04:12:36.367Z,7.70
2022-09-21T04:15:07.486Z,7.70
2022-09-21T04:17:35.482Z,7.60
2022-09-21T04:20:03.876Z,7.50
2022-09-21T04:22:31.755Z,7.50
2022-09-21T04:25:00.477Z,7.40
2022-09-21T04:27:29.697Z,7.40
2022-09-21T04:29:57.667Z,7.30
2022-09-21T04:32:25.602Z,7.20
2022-09-21T04:34:53.596Z,7.10
2022-09-21T04:37:21.506Z,7.00
2022-09-21T04:39:49.541Z,6.90
2022-09-21T04:42:17.523Z,6.80
2022-09-21T04:44:46.813Z,6.70
2022-09-21T04:47:15.155Z,6.60
2022-09-21T04:49:43.251Z,6.50
2022-09-21T04:52:12.906Z,6.40
2022-09-21T04:54:44.347Z,6.30
2022-09-21T04:57:12.343Z,6.30
2022-09-21T04:59:40.309Z,6.20
2022-09-21T05:02:12.910Z,6.10
2022-09-21T05:04:41.052Z,6.00
2022-09-21T05:07:09.098Z,5.90
2022-09-21T05:09:54.523Z,5.90
2022-09-21T05:12:22.620Z,5.80
2022-09-21T05:14:50.732Z,5.70
2022-09-21T05:17:22.795Z,5.70
2022-09-21T05:19:50.991Z,5.60
2022-09-21T05:22:19.416Z,5.60
2022-09-21T05:24:47.500Z,5.60
2022-09-21T05:27:15.802Z,5.60
2022-09-21T05:29:44.264Z,5.70
2022-09-21T05:32:19.724Z,5.70
2022-09-21T05:34:57.750Z,5.70
2022-09-21T05:37:44.829Z,5.70
2022-09-21T05:40:14.206Z,5.80
2022-09-21T05:42:42.709Z,5.80
2022-09-21T05:45:16.005Z,5.80
2022-09-21T05:47:59.253Z,5.80
2022-09-21T05:50:39.294Z,5.80
2022-09-21T05:53:20.631Z,5.90
2022-09-21T05:55:57.260Z,6.00
2022-09-21T05:58:33.976Z,6.10
2022-09-21T06:01:17.376Z,6.20
2022-09-21T06:03:48.570Z,6.30
2022-09-21T06:06:18.294Z,6.40
2022-09-21T06:08:46.219Z,6.50
2022-09-21T06:11:14.911Z,6.70
2022-09-21T06:13:43.138Z,6.70
2022-09-21T06:16:11.054Z,6.80
2022-09-21T06:18:40.087Z,6.80
2022-09-21T06:21:08.476Z,6.90
2022-09-21T06:23:38.989Z,6.90
2022-09-21T06:26:07.009Z,6.90
2022-09-21T06:28:34.945Z,7.00
2022-09-21T06:31:02.931Z,7.10
2022-09-21T06:33:31.034Z,7.10
2022-09-21T06:36:00.333Z,7.20
2022-09-21T06:38:29.117Z,7.40
2022-09-21T06:41:03.155Z,7.50
2022-09-21T06:43:31.711Z,7.90
2022-09-21T06:46:01.201Z,8.40
2022-09-21T06:48:30.513Z,9.00
2022-09-21T06:50:59.793Z,9.60
2022-09-21T06:53:28.824Z,10.20
2022-09-21T06:56:03.271Z,10.60
2022-09-21T06:58:31.806Z,10.60
2022-09-21T07:00:59.850Z,10.70
2022-09-21T07:03:28.105Z,10.60
2022-09-21T07:05:56.094Z,10.60
2022-09-21T07:11:14.475Z,10.50
2022-09-21T07:13:42.627Z,10.50
2022-09-21T07:16:11.209Z,10.40
2022-09-21T07:18:44.371Z,10.30
2022-09-21T07:21:13.177Z,10.30
2022-09-21T07:23:41.091Z,10.20
2022-09-21T07:26:10.304Z,10.20
2022-09-21T07:28:39.806Z,10.20
2022-09-21T07:31:09.225Z,10.20
2022-09-21T07:33:37.755Z,10.30
2022-09-21T07:36:10.549Z,10.30
2022-09-21T07:38:40.244Z,10.40
2022-09-21T07:41:08.626Z,10.40
2022-09-21T07:43:39.275Z,10.50
2022-09-21T07:46:09.535Z,10.60
2022-09-21T07:48:37.696Z,10.70
2022-09-21T07:51:07.349Z,10.80
2022-09-21T07:53:35.429Z,11.00
2022-09-21T07:56:04.116Z,11.10
2022-09-21T07:58:49.419Z,11.40
2022-09-21T08:01:18.869Z,11.50
2022-09-21T08:03:49.574Z,12.10
2022-09-21T08:06:17.706Z,12.50
2022-09-21T08:08:48.197Z,12.70
2022-09-21T08:11:17.671Z,12.70
2022-09-21T08:13:45.817Z,12.80
2022-09-21T08:16:13.746Z,12.80
2022-09-21T08:18:44.013Z,12.90
2022-09-21T08:21:12.552Z,12.90
2022-09-21T08:23:43.036Z,12.90
2022-09-21T08:26:19.099Z,13.30
2022-09-21T08:28:49.795Z,14.00
2022-09-21T08:31:22.558Z,14.70
2022-09-21T08:33:52.325Z,15.30
2022-09-21T08:36:23.689Z,15.90
2022-09-21T08:38:51.785Z,16.50
2022-09-21T08:41:22.012Z,16.80
2022-09-21T08:43:53.297Z,17.10
2022-09-21T08:46:24.231Z,17.20
2022-09-21T08:48:59.448Z,17.50
2022-09-21T08:51:31.523Z,18.00
2022-09-21T08:54:05.025Z,18.50
2022-09-21T08:57:00.698Z,19.00
2022-09-21T08:59:20.939Z,19.50
2022-09-21T09:01:59.551Z,19.80
2022-09-21T09:04:50.747Z,19.90
2022-09-21T09:07:32.188Z,19.70
2022-09-21T09:10:11.650Z,19.60
2022-09-21T09:12:52.337Z,19.60
2022-09-21T09:15:34.419Z,19.50
2022-09-21T09:18:09.093Z,19.70
2022-09-21T09:20:41.997Z,19.90
2022-09-21T09:23:14.429Z,19.90
2022-09-21T09:25:44.441Z,19.90
2022-09-21T09:28:23.870Z,19.70
2022-09-21T09:30:59.681Z,19.50
2022-09-21T09:33:31.495Z,19.40
2022-09-21T09:36:04.785Z,19.50
2022-09-21T09:38:38.342Z,19.60
2022-09-21T09:41:36.469Z,19.50
2022-09-21T09:44:21.401Z,19.50
2022-09-21T09:47:00.994Z,19.30
2022-09-21T09:49:39.282Z,18.80
2022-09-21T09:52:11.393Z,18.50
2022-09-21T09:54:39.547Z,18.10
2022-09-21T09:57:09.274Z,17.90
2022-09-21T09:59:44.092Z,17.70
2022-09-21T10:02:21.201Z,17.90
2022-09-21T10:05:06.290Z,18.20
2022-09-21T10:07:40.833Z,18.40
2022-09-21T10:10:31.323Z,18.20
2022-09-21T10:13:07.310Z,18.30
2022-09-21T10:15:35.289Z,18.30
2022-09-21T10:18:12.946Z,18.30
2022-09-21T10:20:42.540Z,18.50
2022-09-21T10:23:21.270Z,18.90
2022-09-21T10:25:59.368Z,18.90
2022-09-21T10:28:28.331Z,18.80
2022-09-21T10:31:23.751Z,18.50
2022-09-21T10:33:55.455Z,18.30
2022-09-21T10:36:29.731Z,18.10
2022-09-21T10:39:18.868Z,18.00
2022-09-21T10:41:50.905Z,17.80
2022-09-21T10:44:20.573Z,17.50
2022-09-21T10:46:49.988Z,17.40
2022-09-21T10:49:23.556Z,17.30
2022-09-21T10:51:53.746Z,17.10
2022-09-21T10:54:26.629Z,16.90
2022-09-21T10:56:57.829Z,16.70
2022-09-21T10:59:28.409Z,16.90
2022-09-21T11:01:58.100Z,17.30
2022-09-21T11:04:43.422Z,17.80
2022-09-21T11:07:18.198Z,18.30
2022-09-21T11:09:54.327Z,19.00
2022-09-21T11:12:36.814Z,19.50
2022-09-21T11:15:18.013Z,19.50
2022-09-21T11:17:52.822Z,19.30
2022-09-21T11:20:28.729Z,19.00
2022-09-21T11:23:04.195Z,18.80
2022-09-21T11:25:47.574Z,18.50
2022-09-21T11:28:22.211Z,18.10
2022-09-21T11:31:06.637Z,17.80
2022-09-21T11:33:50.896Z,17.70
2022-09-21T11:36:25.700Z,17.80
2022-09-21T11:39:02.065Z,17.40
2022-09-21T11:41:51.227Z,17.20
2022-09-21T11:44:40.876Z,17.00
2022-09-21T11:47:23.001Z,16.80
2022-09-21T11:50:29.329Z,16.50
2022-09-21T11:53:11.195Z,16.30
2022-09-21T11:55:59.065Z,16.10
2022-09-21T11:58:39.639Z,16.00
2022-09-21T12:01:19.042Z,15.90
2022-09-21T12:04:04.126Z,15.80
2022-09-21T12:06:41.901Z,15.80
2022-09-21T12:09:35.067Z,15.60
2022-09-21T12:12:10.213Z,15.50
2022-09-21T12:14:51.084Z,15.40
2022-09-21T12:17:27.484Z,15.40
2022-09-21T12:20:03.867Z,15.30
2022-09-21T12:22:35.552Z,15.40
2022-09-21T12:25:07.439Z,15.50
2022-09-21T12:27:40.241Z,15.70
2022-09-21T12:30:15.296Z,15.70
2022-09-21T12:32:53.392Z,15.70
2022-09-21T12:35:28.286Z,15.70
2022-09-21T12:38:00.171Z,15.70
2022-09-21T12:40:38.041Z,15.70
2022-09-21T12:43:16.148Z,15.70
2022-09-21T12:45:49.505Z,15.70
2022-09-21T12:48:27.437Z,15.60
2022-09-21T12:51:05.121Z,15.50
2022-09-21T12:53:37.865Z,15.40
2022-09-21T12:56:11.631Z,15.40
2022-09-21T12:58:50.699Z,15.40
2022-09-21T13:01:33.525Z,15.50
2022-09-21T13:04:14.058Z,15.50
2022-09-21T13:07:09.630Z,15.70
2022-09-21T13:09:42.052Z,16.00
2022-09-21T13:12:16.984Z,16.10
2022-09-21T13:14:48.305Z,16.20
2022-09-21T13:17:24.712Z,16.30
2022-09-21T13:19:59.814Z,16.30
2022-09-21T13:22:32.485Z,16.10
2022-09-21T13:25:05.615Z,15.80
2022-09-21T13:28:03.810Z,15.40
2022-09-21T13:30:37.935Z,15.10
2022-09-21T13:33:39.314Z,15.10
2022-09-21T13:36:32.378Z,15.10
2022-09-21T13:39:15.422Z,15.10
2022-09-21T13:42:02.769Z,15.30
2022-09-21T13:44:44.031Z,15.80
2022-09-21T13:47:12.424Z,16.10
2022-09-21T13:49:54.062Z,16.30
2022-09-21T13:52:32.880Z,16.40
2022-09-21T13:55:04.123Z,16.50
2022-09-21T13:57:38.873Z,16.50
2022-09-21T14:00:38.633Z,16.50
2022-09-21T14:03:21.326Z,16.50
2022-09-21T14:05:52.948Z,16.40
2022-09-21T14:08:54.334Z,16.30
2022-09-21T14:11:29.752Z,16.30
2022-09-21T14:14:06.982Z,16.20
2022-09-21T14:17:02.489Z,16.20
2022-09-21T14:20:04.809Z,16.10
2022-09-21T14:22:44.522Z,16.00
2022-09-21T14:25:30.801Z,15.90
2022-09-21T14:28:13.481Z,15.80
2022-09-21T14:30:48.959Z,15.70
2022-09-21T14:33:27.225Z,15.60
2022-09-21T14:35:57.269Z,15.50
2022-09-21T14:38:29.900Z,15.50
2022-09-21T14:41:02.457Z,15.40
2022-09-21T14:43:35.272Z,15.30
2022-09-21T14:46:36.382Z,15.30
2022-09-21T14:49:23.269Z,15.30
2022-09-21T14:52:04.473Z,15.50
2022-09-21T14:54:49.197Z,15.50
2022-09-21T14:57:35.297Z,15.60
2022-09-21T15:00:23.262Z,15.50
2022-09-21T15:03:05.568Z,15.50
2022-09-21T15:05:37.566Z,15.60
2022-09-21T15:08:42.240Z,15.70
2022-09-21T15:11:21.560Z,15.80
2022-09-21T15:14:07.910Z,15.90
2022-09-21T15:16:40.809Z,16.00
2022-09-21T15:19:23.045Z,16.00
2022-09-21T15:21:52.661Z,16.10
2022-09-21T15:24:24.846Z,16.10
2022-09-21T15:26:57.054Z,16.00
2022-09-21T15:29:27.550Z,16.00
2022-09-21T15:31:56.129Z,15.90
2022-09-21T15:34:24.840Z,15.90
2022-09-21T15:36:53.484Z,15.70
2022-09-21T15:39:27.132Z,15.60
2022-09-21T15:42:22.752Z,15.50
2022-09-21T15:44:55.132Z,15.40
2022-09-21T15:47:27.503Z,15.30
2022-09-21T15:49:57.104Z,15.20
2022-09-21T15:52:31.432Z,15.20
2022-09-21T15:55:02.839Z,15.10
2022-09-21T15:57:38.739Z,15.00
2022-09-21T16:00:18.764Z,14.90
2022-09-21T16:03:04.511Z,14.80
2022-09-21T16:05:42.181Z,14.70
2022-09-21T16:08:22.552Z,14.60
2022-09-21T16:10:51.038Z,14.50
2022-09-21T16:13:39.564Z,14.40
2022-09-21T16:16:09.132Z,14.30
2022-09-21T16:18:46.550Z,14.20
2022-09-21T16:21:22.663Z,14.00
2022-09-21T16:23:54.206Z,13.90
2022-09-21T16:26:25.786Z,13.70
2022-09-21T16:29:18.684Z,13.60
2022-09-21T16:31:50.218Z,13.50
2022-09-21T16:34:36.859Z,13.30
2022-09-21T16:37:24.180Z,13.10
2022-09-21T16:39:52.071Z,12.90
2022-09-21T16:42:20.122Z,12.80
2022-09-21T16:44:50.350Z,12.60
2022-09-21T16:47:25.144Z,12.50
2022-09-21T16:49:56.347Z,12.30
2022-09-21T16:52:24.878Z,12.20
2022-09-21T16:54:54.099Z,12.10
2022-09-21T16:57:22.556Z,12.00
2022-09-21T16:59:52.175Z,11.80
2022-09-21T17:02:20.198Z,11.70
2022-09-21T17:04:49.366Z,11.60
2022-09-21T17:07:18.954Z,11.40
2022-09-21T17:09:48.210Z,11.30
2022-09-21T17:12:18.103Z,11.20
2022-09-21T17:14:47.680Z,11.10
2022-09-21T17:17:19.527Z,11.00
2022-09-21T17:19:49.827Z,10.90
2022-09-21T17:22:18.716Z,10.80
2022-09-21T17:24:51.202Z,10.70
2022-09-21T17:27:21.830Z,10.50
2022-09-21T17:29:50.808Z,10.40
2022-09-21T17:32:22.594Z,10.30
2022-09-21T17:34:58.589Z,10.20
2022-09-21T17:37:26.787Z,10.10
2022-09-21T17:39:54.757Z,9.90
2022-09-21T17:42:24.961Z,9.90
2022-09-21T17:45:14.713Z,9.80
2022-09-21T17:47:44.224Z,9.70
2022-09-21T17:50:30.275Z,9.70
2022-09-21T17:53:16.615Z,9.60
2022-09-21T17:55:50.003Z,9.50
2022-09-21T17:58:34.528Z,9.30
2022-09-21T18:01:08.295Z,9.20
2022-09-21T18:03:41.047Z,9.00
2022-09-21T18:06:10.898Z,8.80
2022-09-21T18:08:40.263Z,8.70
2022-09-21T18:11:19.029Z,8.60
2022-09-21T18:13:55.138Z,8.60
2022-09-21T18:16:28.243Z,8.50
2022-09-21T18:19:05.394Z,8.50
2022-09-21T18:21:38.003Z,8.40
2022-09-21T18:24:20.035Z,8.40
2022-09-21T18:26:49.006Z,8.40
2022-09-21T18:29:45.972Z,8.40
2022-09-21T18:32:46.302Z,8.30
2022-09-21T18:35:29.818Z,8.30
2022-09-21T18:38:16.031Z,8.20
2022-09-21T18:40:58.144Z,8.10
2022-09-21T18:43:34.897Z,8.10
2022-09-21T18:46:06.090Z,8.00
2022-09-21T18:48:50.621Z,8.00
2022-09-21T18:51:29.330Z,8.00
2022-09-21T18:53:58.256Z,8.00
2022-09-21T18:56:27.981Z,8.00
2022-09-21T18:58:57.052Z,7.90
2022-09-21T19:01:29.104Z,7.80
2022-09-21T19:03:57.544Z,7.80
2022-09-21T19:06:42.546Z,7.80
2022-09-21T19:09:24.795Z,7.70
2022-09-21T19:12:00.439Z,7.70
2022-09-21T19:14:36.910Z,7.60
2022-09-21T19:17:22.259Z,7.60
2022-09-21T19:20:10.114Z,7.50
2022-09-21T19:22:46.159Z,7.50
2022-09-21T19:25:21.427Z,7.50
2022-09-21T19:27:55.971Z,7.40
2022-09-21T19:30:24.135Z,7.40
2022-09-21T19:32:54.054Z,7.40
2022-09-21T19:35:24.371Z,7.30
2022-09-21T19:37:55.714Z,7.20
2022-09-21T19:40:25.952Z,7.20
2022-09-21T19:43:10.119Z,7.20
2022-09-21T19:45:48.207Z,7.20
2022-09-21T19:48:17.737Z,7.10
2022-09-21T19:50:52.238Z,7.00
2022-09-21T19:53:45.467Z,6.90
2022-09-21T19:56:33.513Z,6.80
2022-09-21T19:59:19.847Z,6.70
2022-09-21T20:01:52.584Z,6.70
2022-09-21T20:04:28.296Z,6.60
2022-09-21T20:07:03.145Z,6.60
2022-09-21T20:09:38.119Z,6.60
2022-09-21T20:12:15.204Z,6.60
2022-09-21T20:14:48.141Z,6.60
2022-09-21T20:17:22.227Z,6.50
2022-09-21T20:19:56.859Z,6.50
2022-09-21T20:22:34.658Z,6.50
2022-09-21T20:25:12.636Z,6.50
2022-09-21T20:27:43.238Z,6.40
2022-09-21T20:30:13.579Z,6.40
2022-09-21T20:32:44.877Z,6.30
2022-09-21T20:35:16.902Z,6.30
2022-09-21T20:37:45.241Z,6.20
2022-09-21T20:40:15.921Z,6.20
2022-09-21T20:42:44.326Z,6.10
2022-09-21T20:45:13.899Z,6.10
2022-09-21T20:47:42.029Z,6.10
2022-09-21T20:50:11.953Z,6.00
2022-09-21T20:52:41.413Z,6.00
2022-09-21T20:55:10.808Z,5.90
2022-09-21T20:57:40.731Z,5.90
2022-09-21T21:00:10.525Z,5.90
2022-09-21T21:02:38.373Z,5.90
2022-09-21T21:05:07.878Z,5.90
2022-09-21T21:07:36.754Z,5.90
2022-09-21T21:10:07.070Z,5.90
2022-09-21T21:12:34.908Z,5.80
2022-09-21T21:15:05.115Z,5.80
2022-09-21T21:17:35.675Z,5.80
2022-09-21T21:20:06.449Z,5.80
2022-09-21T21:22:34.384Z,5.80
2022-09-21T21:25:02.297Z,5.80
2022-09-21T21:27:30.216Z,5.80
2022-09-21T21:29:58.469Z,5.70
2022-09-21T21:32:27.942Z,5.50
2022-09-21T21:34:56.530Z,5.40
2022-09-21T21:37:26.147Z,5.30
2022-09-21T21:39:54.545Z,5.20
2022-09-21T21:42:22.880Z,5.10
2022-09-21T21:44:51.344Z,5.10
2022-09-21T21:50:09.804Z,5.00
2022-09-21T21:52:37.881Z,4.90
2022-09-21T21:55:08.486Z,4.90
2022-09-21T21:57:36.351Z,4.90
2022-09-21T22:00:06.261Z,4.90
2022-09-21T22:02:34.339Z,4.90
2022-09-21T22:05:02.277Z,4.90
2022-09-21T22:07:31.426Z,4.90
2022-09-21T22:09:59.357Z,4.90
2022-09-21T22:12:27.322Z,4.90
2022-09-21T22:14:55.289Z,4.90
2022-09-21T22:17:23.250Z,4.90
2022-09-21T22:19:51.433Z,4.90
2022-09-21T22:22:19.303Z,4.90
2022-09-21T22:24:50.089Z,4.90
2022-09-21T22:27:18.010Z,4.80
2022-09-21T22:29:45.967Z,4.70
2022-09-21T22:32:13.864Z,4.70
2022-09-21T22:34:41.872Z,4.70
2022-09-21T22:37:09.796Z,4.70
2022-09-21T22:39:37.778Z,4.70
2022-09-21T22:42:07.432Z,4.70
2022-09-21T22:44:35.442Z,4.70
2022-09-21T22:47:03.488Z,4.60
2022-09-21T22:49:31.483Z,4.60
2022-09-21T22:51:59.754Z,4.60
2022-09-21T22:54:27.778Z,4.50
2022-09-21T22:56:55.702Z,4.50
2022-09-21T22:59:25.111Z,4.60
2022-09-21T23:01:53.099Z,4.60
2022-09-21T23:04:21.365Z,4.60
2022-09-21T23:06:50.222Z,4.50
2022-09-21T23:09:19.643Z,4.50
2022-09-21T23:11:52.879Z,4.50
2022-09-21T23:14:21.617Z,4.50
2022-09-21T23:16:51.058Z,4.50
2022-09-21T23:19:19.119Z,4.40
2022-09-21T23:21:49.634Z,4.40
2022-09-21T23:24:18.734Z,4.40
2022-09-21T23:26:47.562Z,4.40
2022-09-21T23:29:17.170Z,4.30
2022-09-21T23:31:46.313Z,4.30
2022-09-21T23:34:19.125Z,4.30
2022-09-21T23:36:52.508Z,4.30
2022-09-21T23:39:31.795Z,4.30
2022-09-21T23:42:04.372Z,4.30
2022-09-21T23:44:34.690Z,4.30
2022-09-21T23:47:05.975Z,4.30
2022-09-21T23:49:35.284Z,4.30
2022-09-21T23:52:03.416Z,4.30
2022-09-21T23:54:31.420Z,4.30
2022-09-21T23:56:59.368Z,4.30
2022-09-21T23:59:27.343Z,4.30
